Time;durP1;ratioP1;P1;durP2;ratioP2;P2;SDS_P1;SDS_P2;PMS_P1;PMS_P2;Temp;Humidity;BMP_temperature;BMP_pressure;BME280_temperature;BME280_humidity;BME280_pressure;Samples;Min_cycle;Max_cycle;Signal;HPM_P1;HPM_P2
2024/02/12 00:01:53;;;;;;;30.10;17.40;;;;;;;9.15;100.00;98166.64;213307;1287;140597;-82
2024/02/12 00:06:56;;;;;;;31.80;18.40;;;;;;;9.12;100.00;98168.55;213651;1292;138650;-83
2024/02/12 00:11:56;;;;;;;29.20;17.60;;;;;;;9.09;100.00;98167.84;213329;1286;139510;-84
2024/02/12 00:16:57;;;;;;;27.70;17.70;;;;;;;9.06;100.00;98166.55;213901;1288;139219;-82
2024/02/12 00:22:00;;;;;;;30.20;17.30;;;;;;;9.06;100.00;98169.55;213380;1292;139660;-84
2024/02/12 00:27:07;;;;;;;36.20;18.80;;;;;;;9.02;100.00;98175.65;213848;1285;138703;-84
2024/02/12 00:32:09;;;;;;;27.70;19.30;;;;;;;8.99;100.00;98178.52;214024;1289;139545;-83
2024/02/12 00:37:10;;;;;;;31.90;18.20;;;;;;;8.97;100.00;98180.62;213870;1291;138796;-85
2024/02/12 00:42:12;;;;;;;27.30;17.30;;;;;;;8.94;100.00;98180.81;213321;1285;139371;-83
2024/02/12 00:47:12;;;;;;;29.10;17.30;;;;;;;8.93;100.00;98183.03;213614;1287;139171;-83
2024/02/12 00:52:14;;;;;;;27.90;17.10;;;;;;;8.92;100.00;98182.88;213322;1285;139256;-83
2024/02/12 00:57:14;;;;;;;28.60;16.30;;;;;;;8.92;100.00;98182.58;213822;1286;138498;-83
2024/02/12 01:02:15;;;;;;;29.20;16.90;;;;;;;8.92;100.00;98183.14;213494;1286;139796;-83
2024/02/12 01:07:17;;;;;;;28.70;15.30;;;;;;;8.90;100.00;98185.04;213916;1285;139087;-84
2024/02/12 01:12:17;;;;;;;26.60;14.40;;;;;;;8.89;100.00;98187.00;213477;1285;139323;-85
2024/02/12 01:17:18;;;;;;;27.10;15.40;;;;;;;8.89;100.00;98187.26;213887;1286;138750;-84
2024/02/12 01:22:21;;;;;;;26.50;14.80;;;;;;;8.88;100.00;98188.21;213330;1287;139620;-84
2024/02/12 01:27:23;;;;;;;23.50;13.60;;;;;;;8.88;100.00;98187.20;213951;1290;138625;-85
2024/02/12 01:32:25;;;;;;;21.40;13.50;;;;;;;8.88;100.00;98186.41;213402;1285;139503;-84
2024/02/12 01:37:27;;;;;;;23.80;13.20;;;;;;;8.88;100.00;98189.17;213912;1288;138817;-85
2024/02/12 01:42:27;;;;;;;20.70;12.30;;;;;;;8.88;100.00;98193.72;213404;1286;139454;-83
2024/02/12 01:47:32;;;;;;;20.50;12.70;;;;;;;8.88;100.00;98193.08;214118;1285;138187;-84
2024/02/12 01:52:32;;;;;;;21.40;13.10;;;;;;;8.88;100.00;98195.03;213378;1285;139953;-84
2024/02/12 01:57:35;;;;;;;17.10;10.60;;;;;;;8.88;100.00;98204.83;213948;1285;138626;-83
2024/02/12 02:02:42;;;;;;;16.30;9.80;;;;;;;8.88;100.00;98209.46;213348;1285;140099;-84
2024/02/12 02:07:47;;;;;;;15.40;8.70;;;;;;;8.87;100.00;98210.89;213823;1289;138559;-83
2024/02/12 02:12:49;;;;;;;12.90;7.90;;;;;;;8.85;100.00;98218.13;213300;1285;140059;-84
2024/02/12 02:17:50;;;;;;;12.10;7.10;;;;;;;8.80;100.00;98220.86;213857;1288;96713;-83
2024/02/12 02:22:52;;;;;;;11.20;6.50;;;;;;;8.76;100.00;98221.17;213374;1285;139364;-83
2024/02/12 02:27:52;;;;;;;12.60;6.80;;;;;;;8.72;100.00;98223.45;213771;1285;138626;-85
2024/02/12 02:32:53;;;;;;;12.20;6.30;;;;;;;8.67;100.00;98228.85;213288;1285;139518;-83
2024/02/12 02:37:54;;;;;;;10.80;6.50;;;;;;;8.63;100.00;98230.64;214654;1285;139199;-84
2024/02/12 02:42:56;;;;;;;11.50;6.80;;;;;;;8.60;100.00;98237.05;213276;1286;139470;-85
2024/02/12 02:47:56;;;;;;;12.10;7.00;;;;;;;8.57;100.00;98243.75;214187;1285;97989;-86
2024/02/12 02:53:01;;;;;;;14.10;7.40;;;;;;;8.55;100.00;98250.96;213445;1284;139087;-85
2024/02/12 02:58:05;;;;;;;12.30;7.30;;;;;;;8.53;100.00;98254.62;213994;1287;138312;-85
2024/02/12 03:03:08;;;;;;;13.10;6.50;;;;;;;8.48;100.00;98253.67;213433;1285;139598;-85
2024/02/12 03:08:09;;;;;;;13.20;6.40;;;;;;;8.43;100.00;98263.70;213958;1289;138362;-86
2024/02/12 03:13:10;;;;;;;11.10;6.70;;;;;;;8.38;100.00;98266.83;213392;1285;230318;-85
2024/02/12 03:18:10;;;;;;;12.30;6.10;;;;;;;8.34;100.00;98268.06;214004;1285;97942;-88
2024/02/12 03:23:11;;;;;;;11.30;5.70;;;;;;;8.29;100.00;98272.98;213307;1285;140194;-86
2024/02/12 03:28:12;;;;;;;9.30;4.20;;;;;;;8.23;100.00;98283.72;213832;1285;138684;-86
2024/02/12 03:33:12;;;;;;;7.20;3.70;;;;;;;8.16;100.00;98288.55;213251;1289;139416;-85
2024/02/12 03:38:13;;;;;;;8.30;4.10;;;;;;;8.08;100.00;98293.14;213968;1285;138527;-86
2024/02/12 03:43:15;;;;;;;10.10;4.30;;;;;;;8.02;100.00;98298.77;213313;1285;139467;-90
2024/02/12 04:04:13;;;;;;;12.50;4.80;;;;;;;7.84;100.00;98315.96;213312;1289;139427;-84
2024/02/12 04:09:14;;;;;;;7.60;4.40;;;;;;;7.84;100.00;98317.61;213914;1285;139442;-84
2024/02/12 04:14:15;;;;;;;8.50;4.80;;;;;;;7.83;100.00;98322.33;213300;1285;138867;-85
2024/02/12 04:19:18;;;;;;;9.40;5.50;;;;;;;7.83;100.00;98326.70;213773;1285;138283;-84
2024/02/12 04:24:19;;;;;;;11.60;6.10;;;;;;;7.81;100.00;98327.04;213452;1285;139038;-84
2024/02/12 04:29:20;;;;;;;9.90;5.30;;;;;;;7.81;100.00;98328.15;213864;1285;138242;-85
2024/02/12 04:34:20;;;;;;;10.70;5.60;;;;;;;7.79;100.00;98331.38;213445;1284;139281;-85
2024/02/12 04:39:21;;;;;;;10.50;5.30;;;;;;;7.77;100.00;98333.27;213899;1285;138398;-85
2024/02/12 04:44:23;;;;;;;11.00;5.80;;;;;;;7.77;100.00;98335.70;213671;1285;139245;-87
2024/02/12 04:49:24;;;;;;;11.10;5.30;;;;;;;7.76;100.00;98335.63;213762;1285;138993;-85
2024/02/12 04:54:26;;;;;;;17.20;6.40;;;;;;;7.75;100.00;98339.23;213318;1290;139606;-85
2024/02/12 04:59:26;;;;;;;11.10;6.70;;;;;;;7.73;100.00;98346.06;213752;1286;137998;-86
2024/02/12 05:04:29;;;;;;;10.20;6.10;;;;;;;7.71;100.00;98349.77;213150;1287;139037;-86
2024/02/12 05:09:29;;;;;;;10.20;6.10;;;;;;;7.70;100.00;98353.92;213763;1286;138395;-86
2024/02/12 05:14:31;;;;;;;9.20;6.00;;;;;;;7.68;100.00;98357.94;213365;1285;139455;-87
2024/02/12 05:24:54;;;;;;;8.30;5.20;;;;;;;7.60;100.00;98365.67;213391;1286;139389;-88
2024/02/12 05:29:58;;;;;;;8.20;4.80;;;;;;;7.56;100.00;98371.66;213779;1288;138187;-85
2024/02/12 05:34:59;;;;;;;7.50;4.60;;;;;;;7.52;100.00;98375.30;213866;1284;243918;-86
2024/02/12 05:39:59;;;;;;;9.10;5.10;;;;;;;7.49;100.00;98384.00;213440;1284;139621;-86
2024/02/12 05:45:00;;;;;;;9.00;4.80;;;;;;;7.44;100.00;98389.07;214078;1290;138614;-85
2024/02/12 05:50:00;;;;;;;7.50;4.30;;;;;;;7.40;100.00;98396.37;213425;1285;139044;-86
2024/02/12 05:55:01;;;;;;;7.60;4.20;;;;;;;7.39;100.00;98398.10;213684;1288;139757;-86
2024/02/12 06:00:02;;;;;;;9.10;5.10;;;;;;;7.36;100.00;98402.65;213595;1284;139384;-87
2024/02/12 06:05:04;;;;;;;8.20;4.40;;;;;;;7.34;100.00;98411.73;214015;1285;138542;-85
2024/02/12 06:10:05;;;;;;;10.20;5.80;;;;;;;7.33;100.00;98414.41;213411;1285;140036;-86
2024/02/12 06:15:06;;;;;;;8.10;4.30;;;;;;;7.31;100.00;98421.00;213458;1286;139038;-88
2024/02/12 06:20:07;;;;;;;13.50;8.30;;;;;;;7.28;100.00;98424.30;213358;1286;139395;-86
2024/02/12 06:25:09;;;;;;;11.00;7.80;;;;;;;7.27;100.00;98431.03;214101;1285;138414;-86
2024/02/12 06:30:11;;;;;;;8.00;4.40;;;;;;;7.27;100.00;98441.66;213610;1285;139299;-88
2024/02/12 06:35:11;;;;;;;8.80;5.20;;;;;;;7.25;100.00;98447.22;213402;1287;138790;-86
2024/02/12 06:40:12;;;;;;;10.50;5.90;;;;;;;7.25;100.00;98452.38;213150;1287;139138;-86
2024/02/12 06:45:14;;;;;;;8.70;4.40;;;;;;;7.24;100.00;98459.73;214014;1285;139010;-86
2024/02/12 06:50:15;;;;;;;8.30;4.20;;;;;;;7.23;100.00;98464.05;213742;1289;139781;-86
2024/02/12 06:55:16;;;;;;;11.40;7.90;;;;;;;7.25;100.00;98472.25;213654;1287;138784;-85
2024/02/12 07:00:17;;;;;;;8.70;4.60;;;;;;;7.25;100.00;98471.30;213316;1291;140763;-86
2024/02/12 07:05:17;;;;;;;12.00;6.90;;;;;;;7.25;100.00;98476.92;213912;1287;138123;-86
2024/02/12 07:10:20;;;;;;;8.30;5.30;;;;;;;7.24;100.00;98486.14;213557;1285;139764;-85
2024/02/12 07:15:21;;;;;;;10.20;5.50;;;;;;;7.23;100.00;98490.07;213890;1285;138668;-89
2024/02/12 07:20:21;;;;;;;8.30;3.60;;;;;;;7.23;100.00;98491.95;213446;1285;139314;-85
2024/02/12 07:25:22;;;;;;;6.40;3.60;;;;;;;7.21;100.00;98501.33;213977;1290;138792;-86
2024/02/12 07:30:22;;;;;;;10.50;5.70;;;;;;;7.20;100.00;98505.10;213591;1284;141175;-85
2024/02/12 07:35:22;;;;;;;7.80;3.70;;;;;;;7.22;100.00;98513.14;214001;1285;138674;-85
2024/02/12 07:40:23;;;;;;;8.90;4.30;;;;;;;7.23;100.00;98513.98;213413;1285;139557;-86
2024/02/12 07:45:23;;;;;;;7.40;3.70;;;;;;;7.23;100.00;98516.16;213666;1287;138658;-85
2024/02/12 07:50:24;;;;;;;5.30;3.10;;;;;;;7.23;100.00;98522.36;213603;1286;139781;-84
2024/02/12 07:55:24;;;;;;;7.30;3.70;;;;;;;7.22;100.00;98524.94;213702;1290;138351;-85
2024/02/12 08:00:25;;;;;;;7.70;3.90;;;;;;;7.23;100.00;98530.41;213562;1284;139496;-85
2024/02/12 08:05:25;;;;;;;6.80;3.20;;;;;;;7.25;100.00;98536.24;213626;1290;138520;-86
2024/02/12 08:10:25;;;;;;;5.30;2.90;;;;;;;7.25;100.00;98540.08;213078;1286;139216;-84
2024/02/12 08:15:26;;;;;;;6.50;2.90;;;;;;;7.27;100.00;98547.50;213596;1287;138673;-84
2024/02/12 08:20:27;;;;;;;6.80;2.70;;;;;;;7.26;100.00;98551.88;213216;1287;139579;-84
2024/02/12 08:25:28;;;;;;;6.70;3.00;;;;;;;7.27;100.00;98561.02;213428;1287;197879;-85
2024/02/12 08:30:28;;;;;;;8.00;3.50;;;;;;;7.26;100.00;98564.85;212932;1287;139580;-84
2024/02/12 08:35:28;;;;;;;6.90;3.30;;;;;;;7.27;100.00;98571.02;213832;1289;138763;-85
2024/02/12 08:40:30;;;;;;;6.40;3.20;;;;;;;7.30;100.00;98574.30;213311;1285;139896;-83
2024/02/12 08:45:31;;;;;;;8.50;4.00;;;;;;;7.30;100.00;98579.14;213619;1287;138964;-84
2024/02/12 08:50:34;;;;;;;7.20;3.50;;;;;;;7.32;100.00;98585.08;213210;1287;139957;-86
2024/02/12 08:55:37;;;;;;;8.20;4.00;;;;;;;7.33;100.00;98592.80;213675;1287;138447;-85
2024/02/12 09:00:38;;;;;;;8.10;3.30;;;;;;;7.35;100.00;98601.61;212943;1286;139449;-85
2024/02/12 09:05:38;;;;;;;5.30;2.50;;;;;;;7.34;100.00;98610.94;213694;1290;97969;-84
2024/02/12 09:10:39;;;;;;;4.80;2.40;;;;;;;7.36;100.00;98612.71;213286;1285;139333;-84
2024/02/12 09:15:39;;;;;;;8.00;3.10;;;;;;;7.36;100.00;98621.94;213568;1286;138814;-86
2024/02/12 09:20:40;;;;;;;5.80;2.30;;;;;;;7.37;100.00;98632.64;213082;1285;139444;-85
2024/02/12 09:25:41;;;;;;;5.80;2.50;;;;;;;7.38;100.00;98638.59;213472;1292;139083;-84
2024/02/12 09:30:41;;;;;;;6.90;2.90;;;;;;;7.37;100.00;98643.13;213022;1285;140087;-84
2024/02/12 09:35:44;;;;;;;7.30;3.50;;;;;;;7.38;100.00;98650.08;213985;1289;97951;-86
2024/02/12 09:40:45;;;;;;;5.60;3.30;;;;;;;7.38;100.00;98661.66;213397;1285;140345;-85
2024/02/12 09:45:46;;;;;;;6.00;2.80;;;;;;;7.39;100.00;98662.59;213908;1289;138572;-86
2024/02/12 09:50:50;;;;;;;9.10;3.00;;;;;;;7.38;100.00;98666.66;213388;1284;140015;-87
2024/02/12 09:55:52;;;;;;;6.80;2.70;;;;;;;7.37;100.00;98670.41;214041;1285;138601;-85
2024/02/12 10:00:53;;;;;;;6.90;2.80;;;;;;;7.38;100.00;98677.22;213205;1285;139353;-84
2024/02/12 10:05:53;;;;;;;4.30;2.30;;;;;;;7.39;100.00;98681.83;213869;1284;99261;-85
2024/02/12 10:10:54;;;;;;;6.30;2.40;;;;;;;7.40;100.00;98687.29;213263;1285;139183;-86
2024/02/12 10:15:55;;;;;;;6.60;2.40;;;;;;;7.40;100.00;98691.52;213868;1289;138662;-84
2024/02/12 10:20:56;;;;;;;5.90;2.40;;;;;;;7.42;100.00;98693.39;213289;1287;139167;-84
2024/02/12 10:25:56;;;;;;;6.40;3.10;;;;;;;7.43;100.00;98690.87;213536;1286;138632;-84
2024/02/12 10:30:57;;;;;;;7.90;3.30;;;;;;;7.45;100.00;98692.81;213348;1285;139501;-85
2024/02/12 10:36:00;;;;;;;6.90;3.40;;;;;;;7.47;100.00;98696.00;213974;1286;97961;-87
2024/02/12 10:41:15;;;;;;;5.90;2.90;;;;;;;7.49;100.00;98699.67;213665;1285;139294;-85
2024/02/12 10:46:15;;;;;;;8.70;3.10;;;;;;;7.52;100.00;98701.63;213882;1288;138736;-84
2024/02/12 10:51:17;;;;;;;5.90;2.60;;;;;;;7.53;100.00;98704.35;213382;1287;144454;-85
2024/02/12 10:56:19;;;;;;;5.70;2.90;;;;;;;7.53;100.00;98707.65;213342;1287;138402;-83
2024/02/12 11:01:22;;;;;;;6.00;2.70;;;;;;;7.53;100.00;98709.67;213357;1286;140683;-87
2024/02/12 11:06:26;;;;;;;5.40;2.10;;;;;;;7.52;100.00;98718.04;213308;1292;108680;-88
2024/02/12 11:11:30;;;;;;;5.10;2.30;;;;;;;7.48;100.00;98722.37;213454;1289;139430;-84
2024/02/12 11:16:32;;;;;;;3.10;1.80;;;;;;;7.46;100.00;98726.20;213918;1289;138249;-85
2024/02/12 11:21:38;;;;;;;3.50;1.70;;;;;;;7.43;100.00;98732.87;213149;1289;139732;-85
2024/02/12 11:26:48;;;;;;;4.00;2.00;;;;;;;7.43;100.00;98734.59;213333;1290;138336;-85
2024/02/12 11:31:53;;;;;;;5.30;2.30;;;;;;;7.42;100.00;98741.00;213522;1285;139685;-86
2024/02/12 11:36:57;;;;;;;7.10;3.00;;;;;;;7.42;100.00;98746.95;214004;1289;138548;-86
2024/02/12 11:41:57;;;;;;;4.60;2.30;;;;;;;7.44;100.00;98751.23;213444;1289;140070;-86
2024/02/12 11:47:02;;;;;;;6.50;2.70;;;;;;;7.43;100.00;98761.48;213939;1288;138326;-85
2024/02/12 11:52:04;;;;;;;5.80;2.90;;;;;;;7.44;100.00;98762.73;213085;1287;139498;-86
2024/02/12 11:57:04;;;;;;;4.90;2.50;;;;;;;7.45;100.00;98769.14;213527;1287;138421;-85
2024/02/12 12:02:05;;;;;;;4.70;2.10;;;;;;;7.43;100.00;98776.73;213374;1287;139254;-87
2024/02/12 12:07:14;;;;;;;3.20;2.00;;;;;;;7.41;100.00;98778.45;213621;1287;138286;-85
2024/02/12 12:12:23;;;;;;;4.30;2.20;;;;;;;7.38;100.00;98790.73;213272;1293;139628;-84
2024/02/12 12:17:23;;;;;;;5.10;2.00;;;;;;;7.33;100.00;98799.73;213549;1292;138409;-85
2024/02/12 12:22:25;;;;;;;5.70;2.40;;;;;;;7.29;100.00;98798.19;213254;1287;140842;-86
2024/02/12 12:27:27;;;;;;;6.10;2.70;;;;;;;7.26;100.00;98804.36;213825;1287;138961;-86
2024/02/12 12:32:28;;;;;;;6.50;2.60;;;;;;;7.24;100.00;98810.48;213186;1290;139608;-87
2024/02/12 12:37:29;;;;;;;7.80;2.90;;;;;;;7.21;100.00;98821.17;213880;1289;138361;-85
2024/02/12 12:42:30;;;;;;;7.60;3.30;;;;;;;7.19;100.00;98824.71;213590;1285;139280;-84
2024/02/12 12:47:34;;;;;;;5.90;2.80;;;;;;;7.16;100.00;98828.30;213958;1289;138043;-86
2024/02/12 12:52:38;;;;;;;7.80;2.80;;;;;;;7.14;100.00;98832.36;213340;1291;139545;-85
2024/02/12 12:57:40;;;;;;;5.90;2.70;;;;;;;7.12;100.00;98841.27;213969;1291;138436;-85
2024/02/12 13:02:40;;;;;;;6.30;2.50;;;;;;;7.12;100.00;98851.75;213374;1291;139907;-86
2024/02/12 13:07:43;;;;;;;6.00;2.50;;;;;;;7.11;100.00;98857.30;214168;1285;138314;-86
2024/02/12 13:12:44;;;;;;;9.90;4.00;;;;;;;7.12;100.00;98859.86;213338;1284;139551;-86
2024/02/12 13:17:47;;;;;;;8.90;3.70;;;;;;;7.12;100.00;98865.04;213689;1287;98201;-88
2024/02/12 13:22:53;;;;;;;7.00;3.10;;;;;;;7.13;100.00;98866.36;213373;1287;139360;-87
2024/02/12 13:28:00;;;;;;;7.30;3.30;;;;;;;7.14;100.00;98877.69;213891;1289;138601;-87
2024/02/12 13:33:05;;;;;;;11.00;4.40;;;;;;;7.16;100.00;98882.92;213368;1285;139637;-87
2024/02/12 13:38:11;;;;;;;8.00;3.60;;;;;;;7.19;100.00;98887.77;213959;1290;139253;-85
2024/02/12 13:43:12;;;;;;;8.90;3.50;;;;;;;7.21;100.00;98891.13;213272;1290;139467;-87
2024/02/12 13:48:13;;;;;;;17.10;5.70;;;;;;;7.24;100.00;98901.46;213786;1290;98089;-86
2024/02/12 13:53:13;;;;;;;12.60;4.60;;;;;;;7.26;100.00;98904.19;213280;1290;139727;-86
2024/02/12 13:58:14;;;;;;;9.90;4.20;;;;;;;7.30;100.00;98911.52;213770;1288;138536;-88
2024/02/12 14:03:14;;;;;;;7.30;3.80;;;;;;;7.34;100.00;98919.58;213068;1285;139797;-87
2024/02/12 14:08:15;;;;;;;11.80;4.30;;;;;;;7.36;100.00;98929.52;214333;1289;138559;-85
2024/02/12 14:13:16;;;;;;;8.70;4.60;;;;;;;7.39;100.00;98939.30;213476;1286;139991;-86
2024/02/12 14:18:17;;;;;;;9.40;4.00;;;;;;;7.40;100.00;98943.90;213766;1290;98014;-85
2024/02/12 14:23:17;;;;;;;15.10;6.30;;;;;;;7.42;100.00;98950.63;213490;1285;139127;-86
2024/02/12 14:28:17;;;;;;;12.10;6.20;;;;;;;7.44;100.00;98952.98;213953;1289;138328;-86
2024/02/12 14:33:18;;;;;;;10.30;5.70;;;;;;;7.47;100.00;98967.36;213277;1286;140566;-85
2024/02/12 14:38:18;;;;;;;9.80;4.70;;;;;;;7.50;100.00;98971.66;213732;1285;138869;-86
2024/02/12 14:43:21;;;;;;;9.10;4.80;;;;;;;7.49;100.00;98974.86;213326;1285;139710;-86
2024/02/12 14:48:22;;;;;;;12.10;5.10;;;;;;;7.51;100.00;98978.63;214058;1286;99269;-85
2024/02/12 14:53:22;;;;;;;12.90;5.90;;;;;;;7.51;100.00;98986.83;213519;1289;139873;-87
2024/02/12 14:58:22;;;;;;;11.30;6.30;;;;;;;7.52;100.00;98995.91;213948;1285;138994;-86
2024/02/12 15:03:25;;;;;;;11.10;5.50;;;;;;;7.53;100.00;99000.22;213554;1285;139593;-84
2024/02/12 15:08:26;;;;;;;13.00;6.20;;;;;;;7.53;100.00;99002.09;214414;1285;138657;-83
2024/02/12 15:13:30;;;;;;;10.20;5.90;;;;;;;7.52;100.00;99012.02;214109;1288;139181;-86
2024/02/12 15:18:34;;;;;;;12.70;5.80;;;;;;;7.52;100.00;99014.14;214193;1285;105950;-86
2024/02/12 15:23:38;;;;;;;12.10;5.80;;;;;;;7.50;100.00;99021.64;213464;1290;139342;-85
2024/02/12 15:28:39;;;;;;;16.10;7.10;;;;;;;7.49;100.00;99027.66;213965;1290;138533;-84
2024/02/12 15:33:39;;;;;;;15.50;6.80;;;;;;;7.48;100.00;99044.47;213384;1291;139836;-87
2024/02/12 15:38:40;;;;;;;12.80;6.70;;;;;;;7.45;100.00;99045.56;213986;1288;138747;-86
2024/02/12 15:43:41;;;;;;;11.70;6.90;;;;;;;7.42;100.00;99046.98;213406;1290;139912;-84
2024/02/12 15:48:41;;;;;;;11.20;6.00;;;;;;;7.40;100.00;99056.98;213869;1289;138686;-86
2024/02/12 15:53:42;;;;;;;14.20;6.90;;;;;;;7.38;100.00;99058.06;213598;1291;139195;-86
2024/02/12 15:58:44;;;;;;;11.90;6.70;;;;;;;7.36;100.00;99068.85;214009;1289;138988;-86
2024/02/12 16:03:44;;;;;;;13.80;7.50;;;;;;;7.33;100.00;99080.89;213230;1286;140106;-86
2024/02/12 16:08:45;;;;;;;15.80;7.10;;;;;;;7.30;100.00;99082.84;213841;1285;138819;-87
2024/02/12 16:13:45;;;;;;;16.10;7.30;;;;;;;7.28;100.00;99092.60;213499;1286;139699;-85
2024/02/12 16:18:50;;;;;;;14.20;7.20;;;;;;;7.25;100.00;99098.21;213812;1290;138523;-86
2024/02/12 16:23:51;;;;;;;16.80;8.40;;;;;;;7.22;100.00;99101.80;213306;1291;139624;-87
2024/02/12 16:28:53;;;;;;;15.60;7.70;;;;;;;7.20;100.00;99110.72;213622;1287;138457;-86
2024/02/12 16:33:54;;;;;;;16.50;7.90;;;;;;;7.18;100.00;99122.27;213334;1288;139221;-87
2024/02/12 16:38:54;;;;;;;19.00;9.00;;;;;;;7.15;100.00;99133.91;213949;1289;139073;-87
2024/02/12 16:43:55;;;;;;;17.40;9.40;;;;;;;7.14;100.00;99137.81;213502;1289;139372;-86
2024/02/12 16:48:57;;;;;;;20.90;9.70;;;;;;;7.12;100.00;99144.05;214140;1286;138651;-87
2024/02/12 16:53:58;;;;;;;17.30;9.30;;;;;;;7.10;100.00;99149.45;213277;1289;139722;-86
2024/02/12 16:58:59;;;;;;;17.50;8.60;;;;;;;7.10;100.00;99157.48;213988;1287;138517;-86
2024/02/12 17:04:00;;;;;;;17.90;9.90;;;;;;;7.10;100.00;99166.01;213460;1289;139555;-86
2024/02/12 17:09:00;;;;;;;19.00;9.80;;;;;;;7.10;100.00;99176.16;213965;1289;138530;-87
2024/02/12 17:14:02;;;;;;;19.90;10.40;;;;;;;7.09;100.00;99176.79;213363;1294;140277;-88
2024/02/12 17:19:04;;;;;;;18.30;9.80;;;;;;;7.09;100.00;99188.98;214882;1288;138681;-87
2024/02/12 17:24:06;;;;;;;17.10;9.30;;;;;;;7.07;100.00;99194.15;213533;1289;138972;-86
2024/02/12 17:29:09;;;;;;;16.40;8.10;;;;;;;7.06;100.00;99204.99;213889;1289;138828;-84
2024/02/12 17:34:09;;;;;;;13.00;7.70;;;;;;;7.05;100.00;99212.58;213045;1291;139468;-86
2024/02/12 17:39:13;;;;;;;18.30;8.70;;;;;;;7.05;100.00;99215.70;213782;1285;138523;-83
2024/02/12 17:44:13;;;;;;;18.30;8.10;;;;;;;7.03;100.00;99220.84;213352;1285;139661;-87
2024/02/12 17:49:14;;;;;;;15.70;7.70;;;;;;;7.01;100.00;99222.00;213844;1289;138545;-87
2024/02/12 17:54:14;;;;;;;16.90;7.90;;;;;;;6.99;100.00;99234.58;213450;1285;140431;-86
2024/02/12 17:59:14;;;;;;;15.00;7.30;;;;;;;6.98;100.00;99234.40;213719;1289;138431;-85
2024/02/12 18:04:16;;;;;;;17.60;8.80;;;;;;;6.96;100.00;99240.02;213029;1287;140091;-84
2024/02/12 18:09:16;;;;;;;16.00;8.50;;;;;;;6.96;100.00;99249.09;213739;1290;138667;-85
2024/02/12 18:14:17;;;;;;;17.60;8.20;;;;;;;6.95;100.00;99252.37;213352;1289;139974;-85
2024/02/12 18:19:18;;;;;;;16.70;8.20;;;;;;;6.96;100.00;99262.29;214290;1290;138654;-86
2024/02/12 18:24:20;;;;;;;15.50;7.20;;;;;;;6.96;100.00;99271.83;213235;1287;139320;-90
2024/02/12 18:29:22;;;;;;;13.10;6.50;;;;;;;6.95;100.00;99272.06;213552;1288;138353;-88
2024/02/12 18:34:23;;;;;;;16.20;6.80;;;;;;;6.94;100.00;99285.87;212994;1287;139579;-89
2024/02/12 18:39:24;;;;;;;13.40;6.70;;;;;;;6.94;100.00;99286.19;213859;1286;138585;-89
2024/02/12 18:44:25;;;;;;;12.90;6.30;;;;;;;6.91;100.00;99286.95;213186;1289;139670;-87
2024/02/12 18:49:26;;;;;;;16.80;6.60;;;;;;;6.88;100.00;99298.56;213876;1285;139516;-89
2024/02/12 18:54:27;;;;;;;14.90;7.00;;;;;;;6.85;100.00;99306.67;213281;1285;139605;-88
2024/02/12 18:59:27;;;;;;;15.20;6.40;;;;;;;6.83;100.00;99312.45;213872;1289;138329;-85
2024/02/12 19:04:28;;;;;;;11.00;5.10;;;;;;;6.82;100.00;99316.17;212944;1292;140016;-86
2024/02/12 19:09:29;;;;;;;13.30;5.80;;;;;;;6.80;100.00;99322.41;213603;1286;138663;-89
2024/02/12 19:14:29;;;;;;;15.50;5.70;;;;;;;6.79;100.00;99332.88;213103;1285;139982;-89
2024/02/12 19:19:34;;;;;;;10.90;5.10;;;;;;;6.78;100.00;99338.80;213854;1285;138598;-86
2024/02/12 19:24:36;;;;;;;13.10;5.30;;;;;;;6.77;100.00;99351.91;213204;1287;139924;-88
2024/02/12 19:29:38;;;;;;;13.00;5.10;;;;;;;6.76;100.00;99358.86;213899;1285;107682;-88
2024/02/12 19:34:38;;;;;;;20.60;7.60;;;;;;;6.75;100.00;99365.81;212730;1287;139760;-89
2024/02/12 19:39:39;;;;;;;16.40;5.10;;;;;;;6.73;100.00;99379.23;213623;1290;138738;-86
2024/02/12 19:44:40;;;;;;;13.30;5.30;;;;;;;6.72;100.00;99389.92;213084;1287;139693;-89
2024/02/12 19:49:40;;;;;;;20.00;8.70;;;;;;;6.71;100.00;99394.44;213698;1290;139945;-88
2024/02/12 19:54:41;;;;;;;13.70;5.30;;;;;;;6.70;100.00;99409.35;213239;1285;139280;-88
2024/02/12 19:59:41;;;;;;;12.80;5.00;;;;;;;6.70;100.00;99416.67;213946;1285;98858;-89
2024/02/12 20:04:43;;;;;;;13.60;5.20;;;;;;;6.68;100.00;99427.77;213183;1285;139373;-89
2024/02/12 20:09:43;;;;;;;10.80;4.70;;;;;;;6.67;100.00;99435.73;213937;1285;138598;-89
2024/02/12 20:14:43;;;;;;;16.00;6.90;;;;;;;6.66;100.00;99442.98;213213;1285;140076;-88
2024/02/12 20:19:44;;;;;;;9.50;4.30;;;;;;;6.64;100.00;99447.24;213850;1284;138497;-88
2024/02/12 20:24:45;;;;;;;10.00;3.60;;;;;;;6.63;100.00;99460.20;213531;1285;139374;-90
2024/02/12 20:29:47;;;;;;;11.70;3.90;;;;;;;6.61;100.00;99460.96;214057;1285;282561;-90
2024/02/12 20:34:47;;;;;;;11.90;4.30;;;;;;;6.60;100.00;99464.30;212836;1287;140285;-87
2024/02/12 20:39:50;;;;;;;11.60;5.10;;;;;;;6.58;100.00;99474.67;213441;1291;139085;-85
2024/02/12 20:44:51;;;;;;;14.00;5.40;;;;;;;6.58;100.00;99474.04;212987;1287;139368;-88
2024/02/12 20:49:54;;;;;;;13.80;5.60;;;;;;;6.57;100.00;99485.28;213527;1285;139059;-87
2024/02/12 20:54:54;;;;;;;11.50;4.90;;;;;;;6.55;100.00;99493.14;213177;1290;141499;-88
2024/02/12 20:59:55;;;;;;;12.70;5.10;;;;;;;6.53;100.00;99507.27;213591;1290;138761;-88
2024/02/12 21:04:55;;;;;;;14.90;4.80;;;;;;;6.51;100.00;99512.92;213241;1287;151300;-87
2024/02/12 21:09:55;;;;;;;11.10;5.10;;;;;;;6.49;100.00;99521.02;213460;1285;139746;-87
2024/02/12 21:14:56;;;;;;;12.20;4.20;;;;;;;6.47;100.00;99525.92;213476;1285;139637;-88
2024/02/12 21:19:57;;;;;;;13.20;5.20;;;;;;;6.46;100.00;99533.02;213472;1289;139984;-85
2024/02/12 21:24:57;;;;;;;9.50;4.40;;;;;;;6.45;100.00;99544.72;213432;1287;139654;-89
2024/02/12 21:29:58;;;;;;;12.50;5.40;;;;;;;6.43;100.00;99548.52;213844;1284;140847;-86
2024/02/12 21:34:58;;;;;;;11.10;5.20;;;;;;;6.44;100.00;99554.53;213880;1284;138923;-88
2024/02/12 21:39:59;;;;;;;10.90;4.40;;;;;;;6.41;100.00;99559.57;213354;1284;139620;-87
2024/02/12 21:45:00;;;;;;;13.10;5.00;;;;;;;6.39;100.00;99571.42;213898;1285;139290;-87
2024/02/12 21:50:01;;;;;;;9.50;4.10;;;;;;;6.38;100.00;99578.36;213399;1289;139671;-89
2024/02/12 21:55:02;;;;;;;12.50;4.80;;;;;;;6.36;100.00;99581.91;213847;1285;138335;-88
2024/02/12 22:00:07;;;;;;;11.20;4.50;;;;;;;6.32;100.00;99588.02;213533;1285;163267;-88
2024/02/12 22:05:07;;;;;;;13.10;4.60;;;;;;;6.29;100.00;99599.08;213467;1292;138576;-88
2024/02/12 22:10:10;;;;;;;10.60;4.30;;;;;;;6.28;100.00;99598.13;213461;1285;139978;-89
2024/02/12 22:15:11;;;;;;;10.50;4.40;;;;;;;6.26;100.00;99609.80;213808;1290;138704;-89
2024/02/12 22:20:14;;;;;;;11.10;4.40;;;;;;;6.25;100.00;99620.09;213258;1287;139581;-89
2024/02/12 22:25:14;;;;;;;8.90;4.10;;;;;;;6.25;100.00;99627.11;213808;1290;138741;-85
2024/02/12 22:30:15;;;;;;;12.40;4.30;;;;;;;6.22;100.00;99627.30;213452;1290;139477;-86
2024/02/12 22:35:15;;;;;;;14.70;5.60;;;;;;;6.19;100.00;99634.52;214046;1290;138316;-87
2024/02/12 22:40:16;;;;;;;11.80;5.60;;;;;;;6.13;100.00;99641.76;213202;1285;139658;-88
2024/02/12 22:45:16;;;;;;;12.50;5.50;;;;;;;6.07;100.00;99648.29;213972;1285;138684;-88
2024/02/12 22:50:17;;;;;;;13.60;6.20;;;;;;;6.00;100.00;99658.87;213411;1285;139479;-89
2024/02/12 22:55:17;;;;;;;14.00;5.80;;;;;;;5.92;100.00;99665.69;213885;1284;138779;-88
2024/02/12 23:00:19;;;;;;;16.60;6.70;;;;;;;5.82;100.00;99662.13;213524;1285;140306;-86
2024/02/12 23:05:20;;;;;;;16.50;6.70;;;;;;;5.74;100.00;99675.05;213864;1284;139397;-88
2024/02/12 23:10:22;;;;;;;17.70;7.10;;;;;;;5.66;100.00;99687.40;213309;1286;139501;-88
2024/02/12 23:15:22;;;;;;;16.70;7.20;;;;;;;5.59;100.00;99698.19;213747;1287;139147;-88